sensor_id;sensor_type;location;lat;lon;timestamp;temperature;humidity
39023;DHT22;25908;51.984;5.928;2023-04-06T00:00:48;6.20;91.20
39023;DHT22;25908;51.984;5.928;2023-04-06T00:03:14;6.10;91.40
39023;DHT22;25908;51.984;5.928;2023-04-06T00:05:41;6.10;91.50
39023;DHT22;25908;51.984;5.928;2023-04-06T00:08:06;6.00;91.50
39023;DHT22;25908;51.984;5.928;2023-04-06T00:10:32;6.10;91.60
39023;DHT22;25908;51.984;5.928;2023-04-06T00:12:59;6.10;91.70
39023;DHT22;25908;51.984;5.928;2023-04-06T00:15:24;6.00;91.80
39023;DHT22;25908;51.984;5.928;2023-04-06T00:17:50;6.10;91.80
39023;DHT22;25908;51.984;5.928;2023-04-06T00:20:16;6.00;91.90
39023;DHT22;25908;51.984;5.928;2023-04-06T00:22:42;6.00;91.90
39023;DHT22;25908;51.984;5.928;2023-04-06T00:25:08;6.00;92.00
39023;DHT22;25908;51.984;5.928;2023-04-06T00:27:35;6.00;92.10
39023;DHT22;25908;51.984;5.928;2023-04-06T00:30:02;6.00;92.20
39023;DHT22;25908;51.984;5.928;2023-04-06T00:32:28;5.90;92.20
39023;DHT22;25908;51.984;5.928;2023-04-06T00:34:53;5.90;92.20
39023;DHT22;25908;51.984;5.928;2023-04-06T00:37:19;5.90;92.20
39023;DHT22;25908;51.984;5.928;2023-04-06T00:39:45;5.80;92.30
39023;DHT22;25908;51.984;5.928;2023-04-06T00:42:12;5.80;92.50
39023;DHT22;25908;51.984;5.928;2023-04-06T00:44:39;5.80;92.60
39023;DHT22;25908;51.984;5.928;2023-04-06T00:47:05;5.80;92.70
39023;DHT22;25908;51.984;5.928;2023-04-06T00:49:32;5.80;92.80
39023;DHT22;25908;51.984;5.928;2023-04-06T00:51:58;5.80;93.00
39023;DHT22;25908;51.984;5.928;2023-04-06T00:54:23;5.80;93.00
39023;DHT22;25908;51.984;5.928;2023-04-06T00:56:49;5.70;93.10
39023;DHT22;25908;51.984;5.928;2023-04-06T00:59:15;5.70;93.20
39023;DHT22;25908;51.984;5.928;2023-04-06T01:01:40;5.70;93.20
39023;DHT22;25908;51.984;5.928;2023-04-06T01:04:06;5.60;93.30
39023;DHT22;25908;51.984;5.928;2023-04-06T01:06:32;5.60;93.40
39023;DHT22;25908;51.984;5.928;2023-04-06T01:08:57;5.60;93.50
39023;DHT22;25908;51.984;5.928;2023-04-06T01:11:23;5.50;93.50
39023;DHT22;25908;51.984;5.928;2023-04-06T01:13:49;5.50;93.60
39023;DHT22;25908;51.984;5.928;2023-04-06T01:16:14;5.50;93.70
39023;DHT22;25908;51.984;5.928;2023-04-06T01:18:40;5.50;93.80
39023;DHT22;25908;51.984;5.928;2023-04-06T01:21:07;5.50;94.00
39023;DHT22;25908;51.984;5.928;2023-04-06T01:23:34;5.40;94.00
39023;DHT22;25908;51.984;5.928;2023-04-06T01:26:00;5.40;94.10
39023;DHT22;25908;51.984;5.928;2023-04-06T01:28:25;5.40;94.10
39023;DHT22;25908;51.984;5.928;2023-04-06T01:30:51;5.40;94.30
39023;DHT22;25908;51.984;5.928;2023-04-06T01:33:16;5.40;94.40
39023;DHT22;25908;51.984;5.928;2023-04-06T01:35:42;5.30;94.40
39023;DHT22;25908;51.984;5.928;2023-04-06T01:38:08;5.30;94.60
39023;DHT22;25908;51.984;5.928;2023-04-06T01:40:33;5.30;94.70
39023;DHT22;25908;51.984;5.928;2023-04-06T01:42:59;5.20;94.80
39023;DHT22;25908;51.984;5.928;2023-04-06T01:45:24;5.30;95.00
39023;DHT22;25908;51.984;5.928;2023-04-06T01:47:50;5.30;95.10
39023;DHT22;25908;51.984;5.928;2023-04-06T01:50:16;5.20;95.20
39023;DHT22;25908;51.984;5.928;2023-04-06T01:52:41;5.20;95.30
39023;DHT22;25908;51.984;5.928;2023-04-06T01:55:07;5.20;95.30
39023;DHT22;25908;51.984;5.928;2023-04-06T01:57:32;5.20;95.30
39023;DHT22;25908;51.984;5.928;2023-04-06T01:59:58;5.20;95.40
39023;DHT22;25908;51.984;5.928;2023-04-06T02:02:24;5.20;95.50
39023;DHT22;25908;51.984;5.928;2023-04-06T02:04:50;5.10;95.60
39023;DHT22;25908;51.984;5.928;2023-04-06T02:07:15;5.10;95.70
39023;DHT22;25908;51.984;5.928;2023-04-06T02:09:41;5.10;95.90
39023;DHT22;25908;51.984;5.928;2023-04-06T02:12:07;5.10;95.90
39023;DHT22;25908;51.984;5.928;2023-04-06T02:14:33;5.10;96.00
39023;DHT22;25908;51.984;5.928;2023-04-06T02:16:58;5.10;96.10
39023;DHT22;25908;51.984;5.928;2023-04-06T02:19:24;5.10;96.30
39023;DHT22;25908;51.984;5.928;2023-04-06T02:21:49;5.00;96.30
39023;DHT22;25908;51.984;5.928;2023-04-06T02:24:15;5.00;96.40
39023;DHT22;25908;51.984;5.928;2023-04-06T02:26:41;5.00;96.40
39023;DHT22;25908;51.984;5.928;2023-04-06T02:29:06;4.90;96.50
39023;DHT22;25908;51.984;5.928;2023-04-06T02:31:32;4.90;96.70
39023;DHT22;25908;51.984;5.928;2023-04-06T02:33:58;4.90;96.70
39023;DHT22;25908;51.984;5.928;2023-04-06T02:36:23;4.90;96.80
39023;DHT22;25908;51.984;5.928;2023-04-06T02:38:49;4.90;96.80
39023;DHT22;25908;51.984;5.928;2023-04-06T02:41:14;4.90;96.80
39023;DHT22;25908;51.984;5.928;2023-04-06T02:43:40;4.90;96.90
39023;DHT22;25908;51.984;5.928;2023-04-06T02:46:06;4.80;96.90
39023;DHT22;25908;51.984;5.928;2023-04-06T02:48:31;4.80;97.00
39023;DHT22;25908;51.984;5.928;2023-04-06T02:50:57;4.80;97.10
39023;DHT22;25908;51.984;5.928;2023-04-06T02:53:22;4.80;97.10
39023;DHT22;25908;51.984;5.928;2023-04-06T02:55:48;4.90;97.20
39023;DHT22;25908;51.984;5.928;2023-04-06T02:58:13;4.80;97.20
39023;DHT22;25908;51.984;5.928;2023-04-06T03:00:39;4.80;97.20
39023;DHT22;25908;51.984;5.928;2023-04-06T03:03:05;4.80;97.30
39023;DHT22;25908;51.984;5.928;2023-04-06T03:05:31;4.90;97.40
39023;DHT22;25908;51.984;5.928;2023-04-06T03:07:56;4.80;97.40
39023;DHT22;25908;51.984;5.928;2023-04-06T03:10:22;4.90;97.50
39023;DHT22;25908;51.984;5.928;2023-04-06T03:12:47;4.90;97.50
39023;DHT22;25908;51.984;5.928;2023-04-06T03:15:13;4.90;97.50
39023;DHT22;25908;51.984;5.928;2023-04-06T03:17:38;4.90;97.50
39023;DHT22;25908;51.984;5.928;2023-04-06T03:20:04;4.90;97.50
39023;DHT22;25908;51.984;5.928;2023-04-06T03:22:30;4.90;97.40
39023;DHT22;25908;51.984;5.928;2023-04-06T03:24:56;4.90;97.40
39023;DHT22;25908;51.984;5.928;2023-04-06T03:27:21;5.00;97.50
39023;DHT22;25908;51.984;5.928;2023-04-06T03:29:47;5.00;97.50
39023;DHT22;25908;51.984;5.928;2023-04-06T03:32:12;5.00;97.50
39023;DHT22;25908;51.984;5.928;2023-04-06T03:34:38;5.00;97.60
39023;DHT22;25908;51.984;5.928;2023-04-06T03:37:04;5.00;97.70
39023;DHT22;25908;51.984;5.928;2023-04-06T03:39:30;5.00;97.70
39023;DHT22;25908;51.984;5.928;2023-04-06T03:41:56;5.10;97.70
39023;DHT22;25908;51.984;5.928;2023-04-06T03:44:21;5.10;97.60
39023;DHT22;25908;51.984;5.928;2023-04-06T03:46:47;5.10;97.30
39023;DHT22;25908;51.984;5.928;2023-04-06T03:49:12;5.10;97.00
39023;DHT22;25908;51.984;5.928;2023-04-06T03:51:38;5.20;96.70
39023;DHT22;25908;51.984;5.928;2023-04-06T03:54:04;5.20;96.60
39023;DHT22;25908;51.984;5.928;2023-04-06T03:56:29;5.20;96.50
39023;DHT22;25908;51.984;5.928;2023-04-06T03:58:55;5.30;96.40
39023;DHT22;25908;51.984;5.928;2023-04-06T04:01:21;5.30;96.20
39023;DHT22;25908;51.984;5.928;2023-04-06T04:03:46;5.30;96.00
39023;DHT22;25908;51.984;5.928;2023-04-06T04:06:12;5.40;95.90
39023;DHT22;25908;51.984;5.928;2023-04-06T04:08:38;5.40;95.90
39023;DHT22;25908;51.984;5.928;2023-04-06T04:11:03;5.40;95.80
39023;DHT22;25908;51.984;5.928;2023-04-06T04:13:29;5.40;95.60
39023;DHT22;25908;51.984;5.928;2023-04-06T04:15:55;5.40;95.40
39023;DHT22;25908;51.984;5.928;2023-04-06T04:18:20;5.50;95.30
39023;DHT22;25908;51.984;5.928;2023-04-06T04:20:46;5.50;95.20
39023;DHT22;25908;51.984;5.928;2023-04-06T04:23:12;5.50;95.10
39023;DHT22;25908;51.984;5.928;2023-04-06T04:25:37;5.50;95.00
39023;DHT22;25908;51.984;5.928;2023-04-06T04:28:03;5.50;94.90
39023;DHT22;25908;51.984;5.928;2023-04-06T04:30:28;5.50;94.90
39023;DHT22;25908;51.984;5.928;2023-04-06T04:32:54;5.60;94.70
39023;DHT22;25908;51.984;5.928;2023-04-06T04:35:20;5.60;94.60
39023;DHT22;25908;51.984;5.928;2023-04-06T04:37:45;5.60;94.50
39023;DHT22;25908;51.984;5.928;2023-04-06T04:40:11;5.60;94.50
39023;DHT22;25908;51.984;5.928;2023-04-06T04:42:37;5.60;94.40
39023;DHT22;25908;51.984;5.928;2023-04-06T04:45:02;5.60;94.40
39023;DHT22;25908;51.984;5.928;2023-04-06T04:47:28;5.60;94.70
39023;DHT22;25908;51.984;5.928;2023-04-06T04:49:54;5.70;94.40
39023;DHT22;25908;51.984;5.928;2023-04-06T04:52:19;5.60;94.30
39023;DHT22;25908;51.984;5.928;2023-04-06T04:54:45;5.70;94.20
39023;DHT22;25908;51.984;5.928;2023-04-06T04:57:12;5.70;94.10
39023;DHT22;25908;51.984;5.928;2023-04-06T04:59:38;5.70;94.10
39023;DHT22;25908;51.984;5.928;2023-04-06T05:02:03;5.70;94.10
39023;DHT22;25908;51.984;5.928;2023-04-06T05:04:29;5.70;94.20
39023;DHT22;25908;51.984;5.928;2023-04-06T05:07:08;5.70;93.80
39023;DHT22;25908;51.984;5.928;2023-04-06T05:09:34;5.80;93.80
39023;DHT22;25908;51.984;5.928;2023-04-06T05:12:00;5.80;93.70
39023;DHT22;25908;51.984;5.928;2023-04-06T05:14:26;5.70;93.70
39023;DHT22;25908;51.984;5.928;2023-04-06T05:16:52;5.80;93.70
39023;DHT22;25908;51.984;5.928;2023-04-06T05:19:18;5.80;93.60
39023;DHT22;25908;51.984;5.928;2023-04-06T05:21:43;5.80;93.60
39023;DHT22;25908;51.984;5.928;2023-04-06T05:24:09;5.90;93.60
39023;DHT22;25908;51.984;5.928;2023-04-06T05:26:35;5.90;93.60
39023;DHT22;25908;51.984;5.928;2023-04-06T05:29:00;5.90;93.60
39023;DHT22;25908;51.984;5.928;2023-04-06T05:31:26;5.90;93.60
39023;DHT22;25908;51.984;5.928;2023-04-06T05:33:52;6.00;93.60
39023;DHT22;25908;51.984;5.928;2023-04-06T05:36:18;6.00;93.80
39023;DHT22;25908;51.984;5.928;2023-04-06T05:38:43;6.00;93.90
39023;DHT22;25908;51.984;5.928;2023-04-06T05:41:09;6.00;93.90
39023;DHT22;25908;51.984;5.928;2023-04-06T05:43:34;6.00;93.90
39023;DHT22;25908;51.984;5.928;2023-04-06T05:46:00;6.10;93.90
39023;DHT22;25908;51.984;5.928;2023-04-06T05:48:26;6.00;93.90
39023;DHT22;25908;51.984;5.928;2023-04-06T05:50:51;6.10;93.90
39023;DHT22;25908;51.984;5.928;2023-04-06T05:53:17;6.10;94.10
39023;DHT22;25908;51.984;5.928;2023-04-06T05:55:42;6.10;94.10
39023;DHT22;25908;51.984;5.928;2023-04-06T05:58:09;6.20;94.10
39023;DHT22;25908;51.984;5.928;2023-04-06T06:00:34;6.30;94.20
39023;DHT22;25908;51.984;5.928;2023-04-06T06:03:00;6.30;94.20
39023;DHT22;25908;51.984;5.928;2023-04-06T06:05:25;6.40;94.10
39023;DHT22;25908;51.984;5.928;2023-04-06T06:07:51;6.40;93.90
39023;DHT22;25908;51.984;5.928;2023-04-06T06:10:17;6.50;93.80
39023;DHT22;25908;51.984;5.928;2023-04-06T06:12:43;6.60;93.70
39023;DHT22;25908;51.984;5.928;2023-04-06T06:15:08;6.60;93.50
39023;DHT22;25908;51.984;5.928;2023-04-06T06:17:34;6.70;93.40
39023;DHT22;25908;51.984;5.928;2023-04-06T06:20:00;6.70;93.20
39023;DHT22;25908;51.984;5.928;2023-04-06T06:22:25;6.80;92.90
39023;DHT22;25908;51.984;5.928;2023-04-06T06:24:51;6.90;92.70
39023;DHT22;25908;51.984;5.928;2023-04-06T06:27:16;6.90;92.30
39023;DHT22;25908;51.984;5.928;2023-04-06T06:29:42;7.00;92.30
39023;DHT22;25908;51.984;5.928;2023-04-06T06:32:07;7.00;92.20
39023;DHT22;25908;51.984;5.928;2023-04-06T06:34:36;7.10;92.10
39023;DHT22;25908;51.984;5.928;2023-04-06T06:37:01;7.20;91.90
39023;DHT22;25908;51.984;5.928;2023-04-06T06:39:28;7.20;91.90
39023;DHT22;25908;51.984;5.928;2023-04-06T06:41:53;7.30;91.70
39023;DHT22;25908;51.984;5.928;2023-04-06T06:44:22;7.40;91.40
39023;DHT22;25908;51.984;5.928;2023-04-06T06:46:47;7.50;90.90
39023;DHT22;25908;51.984;5.928;2023-04-06T06:49:13;7.60;90.60
39023;DHT22;25908;51.984;5.928;2023-04-06T06:51:39;7.70;90.30
39023;DHT22;25908;51.984;5.928;2023-04-06T06:54:05;7.90;89.90
39023;DHT22;25908;51.984;5.928;2023-04-06T06:56:31;8.20;88.70
39023;DHT22;25908;51.984;5.928;2023-04-06T06:58:57;8.40;87.70
39023;DHT22;25908;51.984;5.928;2023-04-06T07:01:22;8.60;86.80
39023;DHT22;25908;51.984;5.928;2023-04-06T07:03:48;8.80;85.80
39023;DHT22;25908;51.984;5.928;2023-04-06T07:06:13;9.00;85.50
39023;DHT22;25908;51.984;5.928;2023-04-06T07:08:39;9.10;83.90
39023;DHT22;25908;51.984;5.928;2023-04-06T07:11:04;9.20;83.10
39023;DHT22;25908;51.984;5.928;2023-04-06T07:13:30;9.20;83.10
39023;DHT22;25908;51.984;5.928;2023-04-06T07:15:55;9.20;83.10
39023;DHT22;25908;51.984;5.928;2023-04-06T07:18:22;9.30;83.10
39023;DHT22;25908;51.984;5.928;2023-04-06T07:20:48;9.30;83.10
39023;DHT22;25908;51.984;5.928;2023-04-06T07:23:13;9.40;82.80
39023;DHT22;25908;51.984;5.928;2023-04-06T07:25:39;9.50;82.40
39023;DHT22;25908;51.984;5.928;2023-04-06T07:28:04;9.50;81.90
39023;DHT22;25908;51.984;5.928;2023-04-06T07:30:30;9.50;81.50
39023;DHT22;25908;51.984;5.928;2023-04-06T07:32:56;9.60;81.50
39023;DHT22;25908;51.984;5.928;2023-04-06T07:35:26;9.60;81.40
39023;DHT22;25908;51.984;5.928;2023-04-06T07:37:52;9.60;81.50
39023;DHT22;25908;51.984;5.928;2023-04-06T07:40:18;9.70;81.40
39023;DHT22;25908;51.984;5.928;2023-04-06T07:42:45;9.80;81.10
39023;DHT22;25908;51.984;5.928;2023-04-06T07:45:10;9.80;80.20
39023;DHT22;25908;51.984;5.928;2023-04-06T07:47:36;9.80;79.20
39023;DHT22;25908;51.984;5.928;2023-04-06T07:50:02;9.90;79.00
39023;DHT22;25908;51.984;5.928;2023-04-06T07:52:27;10.00;78.50
39023;DHT22;25908;51.984;5.928;2023-04-06T07:54:53;10.10;77.60
39023;DHT22;25908;51.984;5.928;2023-04-06T07:57:18;10.10;77.50
39023;DHT22;25908;51.984;5.928;2023-04-06T07:59:44;10.10;77.70
39023;DHT22;25908;51.984;5.928;2023-04-06T08:02:10;10.00;77.90
39023;DHT22;25908;51.984;5.928;2023-04-06T08:04:35;10.00;78.40
39023;DHT22;25908;51.984;5.928;2023-04-06T08:07:01;10.00;78.30
39023;DHT22;25908;51.984;5.928;2023-04-06T08:09:27;10.00;78.60
39023;DHT22;25908;51.984;5.928;2023-04-06T08:11:53;9.90;78.60
39023;DHT22;25908;51.984;5.928;2023-04-06T08:14:18;9.90;78.70
39023;DHT22;25908;51.984;5.928;2023-04-06T08:16:45;9.90;79.10
39023;DHT22;25908;51.984;5.928;2023-04-06T08:19:11;9.80;79.40
39023;DHT22;25908;51.984;5.928;2023-04-06T08:21:36;9.80;79.60
39023;DHT22;25908;51.984;5.928;2023-04-06T08:24:02;9.80;79.80
39023;DHT22;25908;51.984;5.928;2023-04-06T08:26:28;9.80;80.10
39023;DHT22;25908;51.984;5.928;2023-04-06T08:28:54;9.80;80.10
39023;DHT22;25908;51.984;5.928;2023-04-06T08:31:19;9.70;80.20
39023;DHT22;25908;51.984;5.928;2023-04-06T08:33:45;9.70;80.40
39023;DHT22;25908;51.984;5.928;2023-04-06T08:36:12;9.70;80.50
39023;DHT22;25908;51.984;5.928;2023-04-06T08:38:38;9.80;80.80
39023;DHT22;25908;51.984;5.928;2023-04-06T08:41:12;9.80;80.60
39023;DHT22;25908;51.984;5.928;2023-04-06T08:43:49;9.90;80.10
39023;DHT22;25908;51.984;5.928;2023-04-06T08:46:17;10.00;79.70
39023;DHT22;25908;51.984;5.928;2023-04-06T08:48:43;10.10;79.30
39023;DHT22;25908;51.984;5.928;2023-04-06T08:51:09;10.20;79.20
39023;DHT22;25908;51.984;5.928;2023-04-06T08:53:36;10.30;78.60
39023;DHT22;25908;51.984;5.928;2023-04-06T08:56:01;10.40;77.80
39023;DHT22;25908;51.984;5.928;2023-04-06T08:58:31;10.50;77.10
39023;DHT22;25908;51.984;5.928;2023-04-06T09:00:57;10.50;76.70
39023;DHT22;25908;51.984;5.928;2023-04-06T09:03:24;10.60;76.70
39023;DHT22;25908;51.984;5.928;2023-04-06T09:05:51;10.70;76.10
39023;DHT22;25908;51.984;5.928;2023-04-06T09:08:16;10.70;76.20
39023;DHT22;25908;51.984;5.928;2023-04-06T09:10:42;10.80;76.30
39023;DHT22;25908;51.984;5.928;2023-04-06T09:13:09;10.90;76.20
39023;DHT22;25908;51.984;5.928;2023-04-06T09:15:35;11.00;76.30
39023;DHT22;25908;51.984;5.928;2023-04-06T09:18:01;11.10;75.90
39023;DHT22;25908;51.984;5.928;2023-04-06T09:20:27;11.10;75.80
39023;DHT22;25908;51.984;5.928;2023-04-06T09:22:54;11.20;75.80
39023;DHT22;25908;51.984;5.928;2023-04-06T09:25:21;11.40;75.80
39023;DHT22;25908;51.984;5.928;2023-04-06T09:27:57;11.40;74.50
39023;DHT22;25908;51.984;5.928;2023-04-06T09:30:23;11.50;74.50
39023;DHT22;25908;51.984;5.928;2023-04-06T09:32:51;11.50;74.50
39023;DHT22;25908;51.984;5.928;2023-04-06T09:35:18;11.60;74.90
39023;DHT22;25908;51.984;5.928;2023-04-06T09:37:46;11.70;74.90
39023;DHT22;25908;51.984;5.928;2023-04-06T09:40:13;11.70;74.50
39023;DHT22;25908;51.984;5.928;2023-04-06T09:42:41;11.80;74.40
39023;DHT22;25908;51.984;5.928;2023-04-06T09:45:07;11.80;74.40
39023;DHT22;25908;51.984;5.928;2023-04-06T09:47:36;11.90;74.30
39023;DHT22;25908;51.984;5.928;2023-04-06T09:50:02;11.90;74.20
39023;DHT22;25908;51.984;5.928;2023-04-06T09:52:33;11.90;74.30
39023;DHT22;25908;51.984;5.928;2023-04-06T09:55:04;11.90;74.00
39023;DHT22;25908;51.984;5.928;2023-04-06T09:58:06;11.90;74.20
39023;DHT22;25908;51.984;5.928;2023-04-06T10:03:37;12.00;74.30
39023;DHT22;25908;51.984;5.928;2023-04-06T10:06:11;12.20;74.50
39023;DHT22;25908;51.984;5.928;2023-04-06T10:08:39;12.30;74.40
39023;DHT22;25908;51.984;5.928;2023-04-06T10:11:08;12.40;74.10
39023;DHT22;25908;51.984;5.928;2023-04-06T10:13:35;12.50;73.80
39023;DHT22;25908;51.984;5.928;2023-04-06T10:16:01;12.50;73.70
39023;DHT22;25908;51.984;5.928;2023-04-06T10:18:27;12.60;73.90
39023;DHT22;25908;51.984;5.928;2023-04-06T10:21:07;12.60;73.70
39023;DHT22;25908;51.984;5.928;2023-04-06T10:23:39;12.60;72.70
39023;DHT22;25908;51.984;5.928;2023-04-06T10:26:13;12.50;72.00
39023;DHT22;25908;51.984;5.928;2023-04-06T10:28:41;12.50;72.40
39023;DHT22;25908;51.984;5.928;2023-04-06T10:31:07;12.50;72.20
39023;DHT22;25908;51.984;5.928;2023-04-06T10:33:33;12.40;72.20
39023;DHT22;25908;51.984;5.928;2023-04-06T10:36:09;12.50;72.70
39023;DHT22;25908;51.984;5.928;2023-04-06T10:38:39;12.40;72.00
39023;DHT22;25908;51.984;5.928;2023-04-06T10:41:06;12.40;71.80
39023;DHT22;25908;51.984;5.928;2023-04-06T10:43:37;12.30;72.10
39023;DHT22;25908;51.984;5.928;2023-04-06T10:46:04;12.30;72.60
39023;DHT22;25908;51.984;5.928;2023-04-06T10:48:56;12.30;72.50
39023;DHT22;25908;51.984;5.928;2023-04-06T10:51:28;12.20;72.80
39023;DHT22;25908;51.984;5.928;2023-04-06T10:53:55;12.20;73.00
39023;DHT22;25908;51.984;5.928;2023-04-06T10:56:24;12.30;73.20
39023;DHT22;25908;51.984;5.928;2023-04-06T10:58:54;12.30;73.50
39023;DHT22;25908;51.984;5.928;2023-04-06T11:01:24;12.30;73.80
39023;DHT22;25908;51.984;5.928;2023-04-06T11:03:53;12.30;73.90
39023;DHT22;25908;51.984;5.928;2023-04-06T11:06:20;12.50;74.10
39023;DHT22;25908;51.984;5.928;2023-04-06T11:08:46;12.60;74.60
39023;DHT22;25908;51.984;5.928;2023-04-06T11:11:13;12.70;74.20
39023;DHT22;25908;51.984;5.928;2023-04-06T11:13:51;12.80;74.20
39023;DHT22;25908;51.984;5.928;2023-04-06T11:16:19;12.80;74.10
39023;DHT22;25908;51.984;5.928;2023-04-06T11:18:52;12.70;74.10
39023;DHT22;25908;51.984;5.928;2023-04-06T11:21:19;12.70;74.40
39023;DHT22;25908;51.984;5.928;2023-04-06T11:23:45;12.70;74.80
39023;DHT22;25908;51.984;5.928;2023-04-06T11:26:14;12.70;74.90
39023;DHT22;25908;51.984;5.928;2023-04-06T11:28:41;12.70;75.00
39023;DHT22;25908;51.984;5.928;2023-04-06T11:31:09;12.70;75.40
39023;DHT22;25908;51.984;5.928;2023-04-06T11:33:38;12.70;76.40
39023;DHT22;25908;51.984;5.928;2023-04-06T11:36:05;12.70;76.00
39023;DHT22;25908;51.984;5.928;2023-04-06T11:38:31;12.80;76.20
39023;DHT22;25908;51.984;5.928;2023-04-06T11:40:57;12.90;76.20
39023;DHT22;25908;51.984;5.928;2023-04-06T11:43:29;13.00;76.70
39023;DHT22;25908;51.984;5.928;2023-04-06T11:46:03;13.00;76.20
39023;DHT22;25908;51.984;5.928;2023-04-06T11:48:29;13.00;76.50
39023;DHT22;25908;51.984;5.928;2023-04-06T11:50:59;13.00;76.80
39023;DHT22;25908;51.984;5.928;2023-04-06T11:53:27;12.80;77.60
39023;DHT22;25908;51.984;5.928;2023-04-06T11:55:53;12.70;79.60
39023;DHT22;25908;51.984;5.928;2023-04-06T11:58:19;12.60;80.40
39023;DHT22;25908;51.984;5.928;2023-04-06T12:00:44;12.50;81.80
39023;DHT22;25908;51.984;5.928;2023-04-06T12:03:11;12.50;82.60
39023;DHT22;25908;51.984;5.928;2023-04-06T12:05:37;12.40;85.00
39023;DHT22;25908;51.984;5.928;2023-04-06T12:08:03;12.30;86.10
39023;DHT22;25908;51.984;5.928;2023-04-06T12:10:29;12.20;88.40
39023;DHT22;25908;51.984;5.928;2023-04-06T12:12:54;12.10;89.50
39023;DHT22;25908;51.984;5.928;2023-04-06T12:15:20;12.10;90.50
39023;DHT22;25908;51.984;5.928;2023-04-06T12:17:45;12.00;91.20
39023;DHT22;25908;51.984;5.928;2023-04-06T12:20:11;11.90;91.60
39023;DHT22;25908;51.984;5.928;2023-04-06T12:22:37;11.90;92.30
39023;DHT22;25908;51.984;5.928;2023-04-06T12:25:03;11.80;92.70
39023;DHT22;25908;51.984;5.928;2023-04-06T12:27:28;11.70;93.00
39023;DHT22;25908;51.984;5.928;2023-04-06T12:29:54;11.70;93.60
39023;DHT22;25908;51.984;5.928;2023-04-06T12:32:20;11.60;94.10
39023;DHT22;25908;51.984;5.928;2023-04-06T12:34:46;11.60;94.70
39023;DHT22;25908;51.984;5.928;2023-04-06T12:37:12;11.50;95.40
39023;DHT22;25908;51.984;5.928;2023-04-06T12:39:37;11.50;95.80
39023;DHT22;25908;51.984;5.928;2023-04-06T12:42:03;11.50;96.40
39023;DHT22;25908;51.984;5.928;2023-04-06T12:44:29;11.40;97.00
39023;DHT22;25908;51.984;5.928;2023-04-06T12:46:55;11.40;97.40
39023;DHT22;25908;51.984;5.928;2023-04-06T12:49:21;11.40;98.10
39023;DHT22;25908;51.984;5.928;2023-04-06T12:51:47;11.40;98.20
39023;DHT22;25908;51.984;5.928;2023-04-06T12:54:12;11.40;98.00
39023;DHT22;25908;51.984;5.928;2023-04-06T12:56:38;11.30;98.20
39023;DHT22;25908;51.984;5.928;2023-04-06T12:59:04;11.30;98.30
39023;DHT22;25908;51.984;5.928;2023-04-06T13:01:30;11.20;98.60
39023;DHT22;25908;51.984;5.928;2023-04-06T13:03:56;11.30;98.90
39023;DHT22;25908;51.984;5.928;2023-04-06T13:06:23;11.20;99.00
39023;DHT22;25908;51.984;5.928;2023-04-06T13:08:52;11.10;98.90
39023;DHT22;25908;51.984;5.928;2023-04-06T13:11:18;11.00;99.20
39023;DHT22;25908;51.984;5.928;2023-04-06T13:13:45;11.00;99.60
39023;DHT22;25908;51.984;5.928;2023-04-06T13:16:11;11.00;99.90
39023;DHT22;25908;51.984;5.928;2023-04-06T13:18:37;11.00;99.90
39023;DHT22;25908;51.984;5.928;2023-04-06T13:21:04;11.00;99.90
39023;DHT22;25908;51.984;5.928;2023-04-06T13:23:30;11.00;99.90
39023;DHT22;25908;51.984;5.928;2023-04-06T13:26:06;11.00;99.90
39023;DHT22;25908;51.984;5.928;2023-04-06T13:28:34;10.90;99.90
39023;DHT22;25908;51.984;5.928;2023-04-06T13:31:01;10.90;99.90
39023;DHT22;25908;51.984;5.928;2023-04-06T13:33:27;10.90;99.90
39023;DHT22;25908;51.984;5.928;2023-04-06T13:35:53;10.80;99.90
39023;DHT22;25908;51.984;5.928;2023-04-06T13:38:19;10.80;99.90
39023;DHT22;25908;51.984;5.928;2023-04-06T13:40:44;10.70;99.90
39023;DHT22;25908;51.984;5.928;2023-04-06T13:43:10;10.70;99.90
39023;DHT22;25908;51.984;5.928;2023-04-06T13:45:37;10.60;99.90
39023;DHT22;25908;51.984;5.928;2023-04-06T13:48:03;10.70;99.90
39023;DHT22;25908;51.984;5.928;2023-04-06T13:50:29;10.60;99.90
39023;DHT22;25908;51.984;5.928;2023-04-06T13:52:55;10.50;99.90
39023;DHT22;25908;51.984;5.928;2023-04-06T13:55:21;10.50;99.90
39023;DHT22;25908;51.984;5.928;2023-04-06T13:57:50;10.50;99.90
39023;DHT22;25908;51.984;5.928;2023-04-06T14:00:15;10.50;99.90
39023;DHT22;25908;51.984;5.928;2023-04-06T14:02:41;10.40;99.90
39023;DHT22;25908;51.984;5.928;2023-04-06T14:05:07;10.40;99.90
39023;DHT22;25908;51.984;5.928;2023-04-06T14:07:33;10.50;99.90
39023;DHT22;25908;51.984;5.928;2023-04-06T14:09:58;10.50;99.90
39023;DHT22;25908;51.984;5.928;2023-04-06T14:12:24;10.50;99.90
39023;DHT22;25908;51.984;5.928;2023-04-06T14:14:49;10.60;99.90
39023;DHT22;25908;51.984;5.928;2023-04-06T14:17:15;10.50;99.90
39023;DHT22;25908;51.984;5.928;2023-04-06T14:19:41;10.60;99.90
39023;DHT22;25908;51.984;5.928;2023-04-06T14:22:07;10.50;99.90
39023;DHT22;25908;51.984;5.928;2023-04-06T14:24:34;10.60;99.90
39023;DHT22;25908;51.984;5.928;2023-04-06T14:27:01;10.50;99.90
39023;DHT22;25908;51.984;5.928;2023-04-06T14:29:27;10.50;99.90
39023;DHT22;25908;51.984;5.928;2023-04-06T14:31:53;10.50;99.90
39023;DHT22;25908;51.984;5.928;2023-04-06T14:34:27;10.50;99.90
39023;DHT22;25908;51.984;5.928;2023-04-06T14:36:53;10.50;99.90
39023;DHT22;25908;51.984;5.928;2023-04-06T14:39:19;10.50;99.90
39023;DHT22;25908;51.984;5.928;2023-04-06T14:41:44;10.60;99.90
39023;DHT22;25908;51.984;5.928;2023-04-06T14:44:10;10.60;99.90
39023;DHT22;25908;51.984;5.928;2023-04-06T14:46:37;10.60;99.90
39023;DHT22;25908;51.984;5.928;2023-04-06T14:49:03;10.50;99.90
39023;DHT22;25908;51.984;5.928;2023-04-06T14:51:29;10.50;99.90
39023;DHT22;25908;51.984;5.928;2023-04-06T14:53:55;10.50;99.90
39023;DHT22;25908;51.984;5.928;2023-04-06T14:56:22;10.40;99.90
39023;DHT22;25908;51.984;5.928;2023-04-06T14:58:49;10.40;99.90
39023;DHT22;25908;51.984;5.928;2023-04-06T15:01:16;10.40;99.90
39023;DHT22;25908;51.984;5.928;2023-04-06T15:03:42;10.40;99.90
39023;DHT22;25908;51.984;5.928;2023-04-06T15:06:12;10.40;99.90
39023;DHT22;25908;51.984;5.928;2023-04-06T15:08:44;10.40;99.90
39023;DHT22;25908;51.984;5.928;2023-04-06T15:11:11;10.30;99.90
39023;DHT22;25908;51.984;5.928;2023-04-06T15:13:38;10.20;99.90
39023;DHT22;25908;51.984;5.928;2023-04-06T15:16:05;10.20;99.90
39023;DHT22;25908;51.984;5.928;2023-04-06T15:18:31;10.20;99.90
39023;DHT22;25908;51.984;5.928;2023-04-06T15:20:56;10.10;99.90
39023;DHT22;25908;51.984;5.928;2023-04-06T15:23:22;10.10;99.90
39023;DHT22;25908;51.984;5.928;2023-04-06T15:25:48;10.10;99.90
39023;DHT22;25908;51.984;5.928;2023-04-06T15:28:13;10.10;99.90
39023;DHT22;25908;51.984;5.928;2023-04-06T15:30:39;10.10;99.90
39023;DHT22;25908;51.984;5.928;2023-04-06T15:33:07;10.10;99.90
39023;DHT22;25908;51.984;5.928;2023-04-06T15:35:33;10.00;99.90
39023;DHT22;25908;51.984;5.928;2023-04-06T15:37:59;10.00;99.90